Ana Sayfa
METAR-TAF:

METAR-TAF

Havaalanları :

Saltillo, Meksika

Enlem: 25-27N, Boylam: 100-59W, yükseklik: 1790 m

Güncel hava durumu gözlemi

Rapor saat 14:40 UTC de 1 saat ve 22 dakika önce yapıldı.
Sakin rüzgar
Sıcaklık 12°C
Nem 67%
Basınç 1023 hPa
Görüş mesafesi: 16.1 km
Açık gökyüzü

METAR: MMIO 141440Z 00000KT 10SM SKC 12/06 A3022

Saat: 10:02 (16:02 UTC)

Tahmin

Rapor saat 06:05 UTC de 9 saat ve 57 dakika önce yapıldı.
Ayın 14'si saat 06 UTC'den ayın 15'si saat 06 UTC'ye kadar geçerli Tahmin
Rüzgar kuzeydan kt
Görüş mesafesi: 10 km
9000 ft yükseklikte parçalı bulutlu
Ayın 14'si saat 1800 UTC'den
Rüzgar kuzey/kuzeydoğudan 8 kt
Görüş mesafesi: 10 km
8000 ft yükseklikte parçalı bulutlu
20000 ft yükseklikte parçalı bulutlu
Dönüşüyor
ayın 15'si saat 03 UTC'den ayın 15'si saat 05 UTC'ye kadar
Rüzgar kuzey/kuzeybatıdan 4 kt

TAF: MMIO 140605Z 1406/1506 00000KT P6SM SCT090 FM141800 02008KT P6SM SCT080 SCT200 BECMG 1503/1505 34004KT

4.000'den fazla havaalanı için hava durumu gözlemleri ve tahminleri (METAR ve TAF raporları).

Kullanılabilir istasyonlar harita üzerinde sarı ve kırmızı noktalarla gösterilir.

İstasyonun adını görmek için fareyi noktanın üzerinde gezdirin.

Sonrasında hava gözlem ve tahminlerini görmek için tıklayın.

Haritayı değiştirmek için: yaklaştırmak için siyah artı işaretli yeşil düğmeye ve uzaklaştırmak için de eksi işaretli düğmeye hızla tıklayın; bitişik haritalar için yeşil okları kullanın.


METAR-TAF: